createdAt,value
2023-06-08T00:01:41.172Z,7.7
2023-06-08T00:06:47.218Z,7.9
2023-06-08T00:11:53.303Z,7.9
2023-06-08T00:16:59.364Z,7.9
2023-06-08T00:22:05.431Z,7.8
2023-06-08T00:27:11.474Z,7.8
2023-06-08T00:32:17.539Z,7.8
2023-06-08T00:37:23.642Z,7.8
2023-06-08T00:42:29.693Z,7.8
2023-06-08T00:47:35.807Z,7.8
2023-06-08T00:52:41.816Z,7.8
2023-06-08T00:57:47.869Z,7.8
2023-06-08T01:02:53.958Z,7.8
2023-06-08T01:08:00.020Z,7.8
2023-06-08T01:13:06.074Z,7.8
2023-06-08T01:18:12.187Z,7.8
2023-06-08T01:23:18.221Z,7.8
2023-06-08T01:28:26.126Z,7.8
2023-06-08T01:33:32.197Z,7.8
2023-06-08T01:38:38.274Z,7.9
2023-06-08T01:43:44.362Z,7.9
2023-06-08T01:48:50.351Z,7.9
2023-06-08T01:53:56.473Z,7.9
2023-06-08T01:59:02.534Z,7.9
2023-06-08T02:04:08.551Z,7.9
2023-06-08T02:09:14.601Z,7.9
2023-06-08T02:14:20.683Z,7.9
2023-06-08T02:19:26.749Z,7.9
2023-06-08T02:24:32.817Z,7.9
2023-06-08T02:29:38.935Z,7.9
2023-06-08T02:34:44.926Z,7.9
2023-06-08T02:39:50.990Z,7.9
2023-06-08T02:44:57.047Z,8
2023-06-08T02:50:03.305Z,8
2023-06-08T02:55:09.199Z,8
2023-06-08T03:00:15.278Z,8
2023-06-08T03:05:21.312Z,8
2023-06-08T03:10:27.638Z,8
2023-06-08T03:15:33.452Z,8
2023-06-08T03:20:39.523Z,8
2023-06-08T03:25:45.598Z,8
2023-06-08T03:30:51.639Z,8
2023-06-08T03:35:57.736Z,8
2023-06-08T03:41:03.742Z,8
2023-06-08T03:46:09.858Z,8
2023-06-08T03:51:15.887Z,8
2023-06-08T03:56:21.951Z,8
2023-06-08T04:01:28.005Z,8
2023-06-08T04:06:34.093Z,8
2023-06-08T04:11:40.152Z,8
2023-06-08T04:16:46.205Z,8
2023-06-08T04:21:52.349Z,8
2023-06-08T04:26:58.320Z,8
2023-06-08T04:32:04.400Z,8
2023-06-08T04:37:10.458Z,8
2023-06-08T04:42:16.597Z,8
2023-06-08T04:47:22.642Z,8
2023-06-08T04:52:28.665Z,7.8
2023-06-08T04:57:34.745Z,7.8
2023-06-08T05:02:40.904Z,7.8
2023-06-08T05:07:46.852Z,7.8
2023-06-08T05:12:52.893Z,7.8
2023-06-08T05:17:59.075Z,7.9
2023-06-08T05:23:05.050Z,7.7
2023-06-08T05:28:11.089Z,7.6
2023-06-08T05:33:17.155Z,7.7
2023-06-08T05:38:23.236Z,7.6
2023-06-08T05:43:29.291Z,7.6
2023-06-08T05:48:35.388Z,7.6
2023-06-08T05:53:44.275Z,7.7
2023-06-08T06:03:53.739Z,7.8
2023-06-08T06:08:59.638Z,7.8
2023-06-08T06:14:05.650Z,7.7
2023-06-08T06:19:11.774Z,7.7
2023-06-08T06:24:20.647Z,7.7
2023-06-08T06:29:23.868Z,7.7
2023-06-08T06:34:29.948Z,7.7
2023-06-08T06:39:35.971Z,7.8
2023-06-08T06:44:42.018Z,7.8
2023-06-08T06:49:48.114Z,7.9
2023-06-08T07:00:00.383Z,7.9
2023-06-08T07:05:06.267Z,7.9
2023-06-08T07:10:12.337Z,7.9
2023-06-08T07:15:18.444Z,7.9
2023-06-08T07:20:24.484Z,7.9
2023-06-08T07:25:54.604Z,7.9
2023-06-08T07:30:36.598Z,7.8
2023-06-08T07:35:44.420Z,7.8
2023-06-08T07:40:48.747Z,7.8
2023-06-08T07:45:54.785Z,7.8
2023-06-08T07:51:00.887Z,7.8
2023-06-08T07:56:06.905Z,7.7
2023-06-08T08:01:12.973Z,7.5
2023-06-08T08:06:19.036Z,7.3
2023-06-08T08:11:25.112Z,7.4
2023-06-08T08:16:31.209Z,7.4
2023-06-08T08:21:37.203Z,7.6
2023-06-08T08:26:43.266Z,7.8
2023-06-08T08:31:49.345Z,8
2023-06-08T08:36:55.422Z,8
2023-06-08T08:42:01.466Z,8.3
2023-06-08T08:47:07.601Z,8.3
2023-06-08T08:52:13.588Z,8.3
2023-06-08T08:57:19.645Z,8.3
2023-06-08T09:02:25.849Z,8.5
2023-06-08T09:07:31.790Z,8.5
2023-06-08T09:12:37.881Z,8.6
2023-06-08T09:17:43.941Z,8.6
2023-06-08T09:22:50.012Z,8.6
2023-06-08T09:27:56.054Z,8.5
2023-06-08T09:33:02.086Z,8.6
2023-06-08T09:38:08.143Z,8.7
2023-06-08T09:43:14.212Z,8.9
2023-06-08T09:48:20.251Z,8.9
2023-06-08T09:53:26.351Z,9.2
2023-06-08T09:58:32.411Z,9.5
2023-06-08T10:03:38.634Z,9.5
2023-06-08T10:08:46.380Z,9.4
2023-06-08T10:13:52.454Z,8.8
2023-06-08T10:18:58.509Z,9.1
2023-06-08T10:34:16.699Z,9.7
2023-06-08T10:39:22.753Z,9.9
2023-06-08T10:44:28.813Z,10
2023-06-08T10:54:40.916Z,10.4
2023-06-08T10:59:47.021Z,10.4
2023-06-08T11:04:57.700Z,10.7
2023-06-08T11:09:59.143Z,10.2
2023-06-08T11:15:05.503Z,10
2023-06-08T11:20:11.249Z,10.6
2023-06-08T11:25:17.302Z,10.6
2023-06-08T11:30:23.353Z,10.3
2023-06-08T11:35:29.428Z,10.6
2023-06-08T11:40:35.487Z,11.2
2023-06-08T11:45:41.557Z,11.2
2023-06-08T11:50:47.629Z,10.8
2023-06-08T11:55:53.688Z,11.1
2023-06-08T12:00:59.756Z,10.6
2023-06-08T12:11:11.865Z,10.3
2023-06-08T12:16:17.922Z,10.3
2023-06-08T12:21:23.977Z,10.2
2023-06-08T12:26:30.015Z,10.1
2023-06-08T12:31:36.224Z,10.1
2023-06-08T12:36:42.183Z,10.1
2023-06-08T12:41:48.223Z,10.1
2023-06-08T12:46:54.285Z,10.1
2023-06-08T12:52:00.308Z,10.1
2023-06-08T12:57:06.394Z,10.6
2023-06-08T13:02:12.502Z,11.2
2023-06-08T13:07:18.611Z,10.7
2023-06-08T13:12:24.634Z,10.4
2023-06-08T13:17:30.665Z,10.3
2023-06-08T13:22:36.730Z,10.3
2023-06-08T13:27:42.758Z,10.5
2023-06-08T13:32:48.985Z,10.5
2023-06-08T13:37:54.920Z,10.9
2023-06-08T13:43:00.951Z,11.1
2023-06-08T13:48:07.056Z,11.7
2023-06-08T13:53:13.066Z,12.1
2023-06-08T13:58:19.113Z,12.1
2023-06-08T14:03:25.383Z,11.7
2023-06-08T14:08:31.237Z,11.4
2023-06-08T14:13:37.305Z,11.4
2023-06-08T14:18:43.367Z,11.6
2023-06-08T14:23:49.505Z,11.4
2023-06-08T14:28:55.501Z,11.8
2023-06-08T14:34:01.532Z,11.5
2023-06-08T14:39:07.628Z,11.5
2023-06-08T14:49:19.739Z,12.1
2023-06-08T14:54:25.841Z,12.1
2023-06-08T14:59:31.845Z,11.8
2023-06-08T15:04:37.920Z,12.1
2023-06-08T15:09:43.971Z,12.1
2023-06-08T15:14:51.726Z,11.9
2023-06-08T15:19:56.084Z,11.9
2023-06-08T15:25:02.177Z,12.3
2023-06-08T15:30:08.719Z,12.2
2023-06-08T15:35:14.274Z,12.1
2023-06-08T15:40:20.329Z,11.9
2023-06-08T15:45:26.378Z,11.7
2023-06-08T15:50:32.457Z,11.7
2023-06-08T16:00:46.465Z,11.5
2023-06-08T16:05:52.494Z,11.5
2023-06-08T16:10:58.599Z,11.4
2023-06-08T16:16:04.617Z,11.4
2023-06-08T16:21:10.678Z,11.4
2023-06-08T16:26:16.730Z,11.2
2023-06-08T16:31:22.818Z,11.2
2023-06-08T16:36:28.883Z,11.2
2023-06-08T16:41:34.951Z,11.2
2023-06-08T16:46:41.120Z,11.2
2023-06-08T16:51:47.051Z,11
2023-06-08T16:56:53.138Z,11
2023-06-08T17:01:59.284Z,11
2023-06-08T17:07:05.251Z,10.8
2023-06-08T17:12:11.282Z,10.8
2023-06-08T17:17:17.370Z,10.8
2023-06-08T17:22:23.479Z,10.8
2023-06-08T17:27:29.468Z,10.8
2023-06-08T17:32:35.572Z,10.8
2023-06-08T17:37:41.606Z,10.8
2023-06-08T17:42:47.667Z,10.8
2023-06-08T17:47:53.836Z,10.9
2023-06-08T17:53:01.640Z,10.9
2023-06-08T17:58:07.714Z,10.9
2023-06-08T18:03:13.912Z,10.9
2023-06-08T18:08:19.834Z,10.9
2023-06-08T18:13:25.918Z,10.9
2023-06-08T18:18:31.933Z,10.9
2023-06-08T18:23:38.053Z,10.9
2023-06-08T18:28:44.141Z,10.9
2023-06-08T18:33:50.163Z,10.8
2023-06-08T18:38:56.531Z,10.8
2023-06-08T18:44:02.279Z,10.8
2023-06-08T18:49:08.322Z,10.8
2023-06-08T18:54:14.412Z,10.6
2023-06-08T19:04:26.537Z,10.6
2023-06-08T19:09:32.560Z,10.6
2023-06-08T19:14:38.625Z,10.6
2023-06-08T19:19:44.678Z,10.6
2023-06-08T19:29:56.851Z,10.6
2023-06-08T19:35:02.881Z,10.6
2023-06-08T19:40:09.191Z,10.4
2023-06-08T19:45:14.996Z,10.4
2023-06-08T19:50:21.059Z,10.4
2023-06-08T19:55:27.124Z,10.4
2023-06-08T20:00:33.167Z,10.4
2023-06-08T20:05:39.292Z,10.4
2023-06-08T20:10:45.281Z,10.4
2023-06-08T20:15:51.431Z,10.2
2023-06-08T20:20:57.440Z,10.2
2023-06-08T20:26:03.484Z,10.2
2023-06-08T20:31:09.565Z,10.2
2023-06-08T20:41:21.654Z,10.2
2023-06-08T20:46:27.792Z,10.2
2023-06-08T20:51:33.893Z,10.2
2023-06-08T20:56:41.858Z,10.2
2023-06-08T21:01:47.872Z,10
2023-06-08T21:06:53.884Z,10
2023-06-08T21:11:59.957Z,10
2023-06-08T21:17:05.999Z,10
2023-06-08T21:22:12.048Z,10
2023-06-08T21:27:18.110Z,10
2023-06-08T21:32:24.213Z,10
2023-06-08T21:37:30.245Z,10
2023-06-08T21:42:36.301Z,10
2023-06-08T21:47:42.408Z,10
2023-06-08T21:52:48.420Z,9.8
2023-06-08T21:57:54.505Z,9.8
2023-06-08T22:03:00.641Z,9.8
2023-06-08T22:08:06.650Z,9.8
2023-06-08T22:13:12.684Z,9.8
2023-06-08T22:18:18.787Z,9.8
2023-06-08T22:23:24.812Z,9.8
2023-06-08T22:28:30.849Z,9.8
2023-06-08T22:33:36.894Z,9.8
2023-06-08T22:38:43.002Z,9.8
2023-06-08T22:43:49.063Z,9.8
2023-06-08T22:48:55.097Z,9.8
2023-06-08T22:54:01.156Z,9.6
2023-06-08T22:59:07.232Z,9.6
2023-06-08T23:04:13.307Z,9.6
2023-06-08T23:09:19.397Z,9.6
2023-06-08T23:14:25.423Z,9.6
2023-06-08T23:19:31.469Z,9.6
2023-06-08T23:24:37.518Z,9.6
2023-06-08T23:29:43.601Z,9.6
2023-06-08T23:34:49.684Z,9.6
2023-06-08T23:39:55.714Z,9.6
2023-06-08T23:45:01.795Z,9.6
2023-06-08T23:50:07.850Z,9.6
2023-06-08T23:55:15.768Z,9.6
